createdAt,value
2023-05-05T00:38:27.738Z,49.10
2023-05-05T00:45:59.585Z,49.30
2023-05-05T00:53:21.266Z,49.30
2023-05-05T00:58:15.475Z,49.40
2023-05-05T01:03:09.782Z,49.40
2023-05-05T01:11:08.478Z,49.50
2023-05-05T01:14:10.521Z,49.50
2023-05-05T01:16:44.039Z,49.50
2023-05-05T01:19:26.235Z,49.50
2023-05-05T01:22:07.100Z,49.50
2023-05-05T01:24:46.162Z,49.50
2023-05-05T01:30:23.845Z,49.50
2023-05-05T01:33:00.758Z,49.60
2023-05-05T01:35:32.998Z,49.60
2023-05-05T01:38:08.290Z,49.60
2023-05-05T01:40:45.033Z,49.60
2023-05-05T01:43:15.164Z,49.60
2023-05-05T01:45:44.818Z,49.60
2023-05-05T01:48:14.744Z,49.70
2023-05-05T01:55:39.736Z,49.70
2023-05-05T01:58:08.090Z,49.70
2023-05-05T02:00:35.235Z,49.70
2023-05-05T02:03:04.794Z,49.70
2023-05-05T02:12:56.508Z,49.80
2023-05-05T02:15:24.832Z,49.80
2023-05-05T02:17:52.882Z,49.80
2023-05-05T02:20:21.188Z,49.90
2023-05-05T02:27:47.119Z,49.90
2023-05-05T02:30:18.061Z,49.90
2023-05-05T02:32:59.978Z,49.80
2023-05-05T02:35:36.460Z,49.90
2023-05-05T02:38:06.283Z,49.90
2023-05-05T02:40:41.925Z,49.90
2023-05-05T02:43:11.730Z,50.00
2023-05-05T02:53:19.735Z,50.00
2023-05-05T02:55:56.162Z,50.00
2023-05-05T02:58:41.435Z,50.10
2023-05-05T03:01:40.124Z,50.00
2023-05-05T03:04:15.366Z,50.00
2023-05-05T03:06:51.047Z,50.00
2023-05-05T03:09:41.448Z,49.90
2023-05-05T03:12:16.876Z,49.90
2023-05-05T03:14:58.680Z,50.00
2023-05-05T03:17:30.801Z,50.00
2023-05-05T03:19:59.497Z,50.00
2023-05-05T03:22:27.772Z,50.00
2023-05-05T03:24:55.250Z,50.00
2023-05-05T03:27:24.171Z,50.00
2023-05-05T03:32:19.684Z,50.00
2023-05-05T03:34:46.737Z,50.00
2023-05-05T03:37:13.490Z,50.00
2023-05-05T03:39:42.073Z,50.00
2023-05-05T03:42:10.605Z,50.00
2023-05-05T03:44:37.431Z,50.00
2023-05-05T03:47:04.476Z,50.00
2023-05-05T03:52:02.517Z,50.10
2023-05-05T03:54:29.643Z,50.10
2023-05-05T03:56:56.622Z,50.10
2023-05-05T03:59:23.537Z,50.20
2023-05-05T04:01:50.683Z,50.20
2023-05-05T04:04:17.653Z,50.20
2023-05-05T04:06:44.476Z,50.20
2023-05-05T04:09:12.431Z,50.30
2023-05-05T04:11:39.318Z,50.30
2023-05-05T04:14:06.748Z,50.30
2023-05-05T04:16:34.106Z,51.00
2023-05-05T04:19:00.931Z,50.30
2023-05-05T04:21:28.415Z,51.10
2023-05-05T04:23:56.422Z,51.00
2023-05-05T04:26:23.322Z,50.30
2023-05-05T04:28:50.410Z,50.30
2023-05-05T04:31:18.879Z,50.30
2023-05-05T04:36:14.419Z,50.40
2023-05-05T04:38:41.712Z,51.00
2023-05-05T04:41:08.629Z,50.30
2023-05-05T04:43:37.722Z,50.30
2023-05-05T04:46:05.008Z,50.30
2023-05-05T04:48:34.265Z,50.30
2023-05-05T04:51:07.330Z,50.40
2023-05-05T04:53:34.655Z,50.30
2023-05-05T04:56:02.035Z,50.30
2023-05-05T04:58:29.281Z,50.50
2023-05-05T05:00:56.141Z,50.50
2023-05-05T05:03:23.197Z,50.50
2023-05-05T05:05:50.304Z,50.50
2023-05-05T05:10:45.522Z,50.50
2023-05-05T05:13:13.034Z,50.50
2023-05-05T05:15:40.685Z,50.50
2023-05-05T05:18:07.529Z,50.50
2023-05-05T05:20:34.587Z,50.50
2023-05-05T05:23:04.526Z,50.60
2023-05-05T05:25:34.089Z,50.50
2023-05-05T05:28:08.936Z,50.50
2023-05-05T05:30:40.338Z,50.50
2023-05-05T05:33:09.197Z,50.50
2023-05-05T05:35:36.398Z,50.60
2023-05-05T05:38:04.047Z,50.70
2023-05-05T05:40:31.495Z,50.60
2023-05-05T05:45:27.152Z,50.60
2023-05-05T05:47:53.999Z,50.60
2023-05-05T05:50:21.525Z,50.60
2023-05-05T05:52:48.716Z,50.60
2023-05-05T05:55:15.987Z,50.60
2023-05-05T05:57:43.036Z,50.70
2023-05-05T06:00:11.558Z,50.70
2023-05-05T06:02:44.938Z,50.70
2023-05-05T06:05:15.689Z,50.80
2023-05-05T06:07:44.306Z,50.80
2023-05-05T06:10:25.593Z,50.80
2023-05-05T06:12:58.906Z,50.80
2023-05-05T06:17:53.873Z,50.80
2023-05-05T06:20:22.219Z,50.90
2023-05-05T06:22:49.289Z,50.80
2023-05-05T06:27:44.734Z,50.90
2023-05-05T06:30:12.135Z,50.90
2023-05-05T06:35:07.118Z,51.00
2023-05-05T06:37:33.917Z,50.90
2023-05-05T06:40:00.734Z,51.00
2023-05-05T06:42:27.674Z,51.00
2023-05-05T06:59:40.925Z,50.50
2023-05-05T07:02:09.701Z,50.50
2023-05-05T07:04:37.114Z,50.50
2023-05-05T07:07:04.147Z,51.40
2023-05-05T07:09:31.060Z,50.70
2023-05-05T07:11:57.950Z,50.80
2023-05-05T07:14:24.861Z,50.80
2023-05-05T07:16:52.634Z,50.90
2023-05-05T07:19:19.591Z,51.00
2023-05-05T07:21:47.219Z,50.80
2023-05-05T07:24:14.110Z,51.50
2023-05-05T07:26:41.148Z,50.70
2023-05-05T07:29:07.995Z,50.40
2023-05-05T07:31:35.853Z,51.10
2023-05-05T07:34:04.745Z,50.30
2023-05-05T07:36:32.145Z,50.90
2023-05-05T07:38:59.029Z,50.70
2023-05-05T07:41:25.870Z,50.10
2023-05-05T07:46:20.317Z,50.70
2023-05-05T07:51:14.594Z,51.00
2023-05-05T07:53:41.444Z,50.90
2023-05-05T08:06:09.933Z,50.80
2023-05-05T08:11:06.289Z,50.80
2023-05-05T08:16:00.604Z,50.80
2023-05-05T08:23:22.642Z,50.50
2023-05-05T08:25:50.020Z,50.50
2023-05-05T08:28:16.773Z,50.40
2023-05-05T08:30:43.969Z,50.40
2023-05-05T08:40:34.819Z,50.10
2023-05-05T08:43:01.957Z,50.10
2023-05-05T08:53:18.566Z,50.10
2023-05-05T08:55:52.131Z,50.10
2023-05-05T08:58:19.653Z,50.80
2023-05-05T09:00:46.713Z,50.80
2023-05-05T09:03:14.524Z,50.20
2023-05-05T09:05:42.893Z,50.80
2023-05-05T09:08:12.780Z,50.80
2023-05-05T09:10:43.411Z,50.90
2023-05-05T09:13:10.428Z,50.90
2023-05-05T09:15:38.830Z,50.20
2023-05-05T09:18:08.925Z,50.90
2023-05-05T09:20:38.025Z,50.80
2023-05-05T09:23:16.662Z,50.70
2023-05-05T09:25:45.922Z,50.70
2023-05-05T09:28:17.695Z,50.80
2023-05-05T09:30:46.542Z,50.80
2023-05-05T09:33:14.053Z,50.80
2023-05-05T09:35:55.017Z,50.10
2023-05-05T09:38:24.572Z,50.70
2023-05-05T09:40:54.372Z,50.60
2023-05-05T09:43:23.621Z,50.00
2023-05-05T09:45:51.088Z,50.70
2023-05-05T09:48:29.378Z,51.40
2023-05-05T09:50:58.327Z,50.70
2023-05-05T09:55:58.287Z,49.80
2023-05-05T09:58:29.642Z,49.80
2023-05-05T10:00:58.377Z,50.40
2023-05-05T10:03:26.038Z,50.40
2023-05-05T10:05:57.679Z,50.50
2023-05-05T10:08:30.399Z,50.40
2023-05-05T10:11:00.440Z,49.70
2023-05-05T10:13:28.753Z,50.40
2023-05-05T10:15:57.287Z,50.40
2023-05-05T10:18:28.649Z,50.30
2023-05-05T10:21:00.499Z,49.70
2023-05-05T10:23:38.570Z,50.40
2023-05-05T10:26:08.199Z,50.40
2023-05-05T10:28:44.042Z,50.40
2023-05-05T10:31:25.979Z,50.40
2023-05-05T10:34:23.487Z,50.40
2023-05-05T10:36:51.409Z,49.80
2023-05-05T10:39:20.146Z,49.80
2023-05-05T10:46:44.892Z,49.70
2023-05-05T10:49:28.754Z,49.70
2023-05-05T10:56:57.968Z,49.60
2023-05-05T11:05:07.155Z,49.50
2023-05-05T11:07:37.087Z,50.20
2023-05-05T11:10:06.175Z,50.10
2023-05-05T11:12:59.893Z,50.20
2023-05-05T11:15:29.844Z,50.10
2023-05-05T11:17:58.883Z,50.40
2023-05-05T11:20:40.787Z,49.90
2023-05-05T11:23:07.715Z,49.90
2023-05-05T11:25:38.080Z,49.90
2023-05-05T11:28:13.413Z,49.90
2023-05-05T11:31:00.448Z,50.00
2023-05-05T11:33:28.417Z,50.10
2023-05-05T11:36:01.326Z,49.50
2023-05-05T11:38:47.777Z,50.30
2023-05-05T11:41:33.087Z,50.30
2023-05-05T11:49:32.564Z,50.00
2023-05-05T11:52:00.917Z,49.90
2023-05-05T11:54:28.823Z,50.00
2023-05-05T11:57:05.157Z,50.00
2023-05-05T12:06:55.547Z,49.90
2023-05-05T12:09:23.136Z,49.90
2023-05-05T12:11:51.116Z,49.90
2023-05-05T12:17:01.189Z,49.80
2023-05-05T12:19:30.321Z,49.80
2023-05-05T12:24:24.878Z,49.80
2023-05-05T12:26:51.829Z,49.70
2023-05-05T12:29:29.075Z,49.70
2023-05-05T12:31:57.828Z,50.40
2023-05-05T12:39:19.676Z,50.00
2023-05-05T12:51:56.053Z,49.90
2023-05-05T12:54:25.052Z,50.00
2023-05-05T12:56:51.909Z,50.70
2023-05-05T12:59:21.811Z,50.70
2023-05-05T13:01:53.313Z,50.70
2023-05-05T13:04:22.793Z,50.60
2023-05-05T13:07:07.338Z,50.60
2023-05-05T13:09:34.614Z,50.50
2023-05-05T13:12:04.723Z,50.50
2023-05-05T13:14:35.109Z,50.50
2023-05-05T13:17:02.028Z,50.60
2023-05-05T13:19:29.257Z,49.80
2023-05-05T13:21:57.295Z,49.80
2023-05-05T13:24:37.885Z,50.50
2023-05-05T13:27:09.634Z,50.40
2023-05-05T13:29:36.578Z,50.30
2023-05-05T13:32:03.435Z,50.30
2023-05-05T13:34:30.478Z,50.20
2023-05-05T13:36:57.402Z,49.50
2023-05-05T13:39:24.287Z,49.50
2023-05-05T13:41:51.177Z,50.20
2023-05-05T13:44:18.062Z,49.40
2023-05-05T13:46:45.084Z,50.10
2023-05-05T13:51:39.467Z,49.40
2023-05-05T13:54:07.486Z,49.40
2023-05-05T13:56:35.080Z,49.40
2023-05-05T13:59:02.415Z,49.30
2023-05-05T14:03:58.078Z,49.20
2023-05-05T14:06:25.894Z,49.20
2023-05-05T14:08:52.836Z,49.10
2023-05-05T14:11:20.708Z,49.10
2023-05-05T14:13:48.082Z,49.00
2023-05-05T14:18:42.519Z,48.70
2023-05-05T14:21:09.639Z,48.80
2023-05-05T14:23:36.506Z,49.40
2023-05-05T14:26:03.408Z,49.40
2023-05-05T14:28:30.647Z,49.30
2023-05-05T14:30:57.595Z,49.20
2023-05-05T14:38:20.244Z,48.50
2023-05-05T14:40:47.215Z,48.50
2023-05-05T14:45:41.330Z,48.50
2023-05-05T15:00:26.704Z,48.40
2023-05-05T15:02:53.692Z,48.30
2023-05-05T15:05:20.733Z,48.20
2023-05-05T15:07:47.691Z,48.20
2023-05-05T15:10:14.895Z,48.20
2023-05-05T15:15:10.583Z,48.10
2023-05-05T15:20:06.753Z,48.10
2023-05-05T15:22:33.895Z,48.00
2023-05-05T15:25:01.197Z,48.70
2023-05-05T15:27:28.114Z,48.70
2023-05-05T15:29:55.243Z,48.80
2023-05-05T15:32:22.150Z,48.90
2023-05-05T15:34:50.408Z,48.90
2023-05-05T15:37:17.546Z,48.90
2023-05-05T15:39:44.340Z,48.90
2023-05-05T15:42:11.160Z,48.90
2023-05-05T15:44:38.172Z,49.00
2023-05-05T15:47:06.130Z,49.00
2023-05-05T15:49:32.984Z,49.00
2023-05-05T15:51:59.878Z,49.00
2023-05-05T15:54:26.647Z,49.10
2023-05-05T15:56:53.483Z,49.10
2023-05-05T15:59:20.540Z,49.10
2023-05-05T16:01:47.610Z,49.20
2023-05-05T16:04:14.510Z,49.20
2023-05-05T16:06:41.354Z,49.30
2023-05-05T16:09:08.243Z,49.30
2023-05-05T16:11:37.151Z,50.40
2023-05-05T16:16:31.475Z,48.70
2023-05-05T16:21:25.817Z,48.70
2023-05-05T16:28:47.510Z,48.40
2023-05-05T16:33:43.553Z,48.20
2023-05-05T16:41:08.698Z,47.70
2023-05-05T16:43:38.312Z,47.70
2023-05-05T16:46:06.095Z,47.60
2023-05-05T16:48:32.938Z,47.50
2023-05-05T16:50:59.842Z,47.40
2023-05-05T16:53:26.830Z,47.50
2023-05-05T16:55:54.089Z,47.20
2023-05-05T16:58:22.730Z,47.20
2023-05-05T17:00:50.220Z,47.10
2023-05-05T17:05:48.278Z,47.00
2023-05-05T17:08:16.662Z,47.00
2023-05-05T17:10:45.278Z,47.00
2023-05-05T17:13:13.260Z,46.90
2023-05-05T17:15:40.529Z,46.90
2023-05-05T17:18:08.463Z,46.80
2023-05-05T17:23:03.296Z,47.00
2023-05-05T17:32:52.502Z,47.00
2023-05-05T17:35:19.618Z,46.90
2023-05-05T17:37:46.490Z,47.00
2023-05-05T17:40:13.483Z,46.90
2023-05-05T17:45:08.632Z,46.80
2023-05-05T17:47:35.981Z,46.80
2023-05-05T17:50:03.426Z,46.80
2023-05-05T17:52:30.376Z,46.70
2023-05-05T17:54:57.371Z,46.70
2023-05-05T18:02:20.758Z,46.60
2023-05-05T18:07:15.307Z,46.60
2023-05-05T18:12:09.767Z,46.60
2023-05-05T18:14:36.720Z,46.50
2023-05-05T18:17:04.609Z,46.50
2023-05-05T18:19:31.621Z,46.60
2023-05-05T18:24:27.410Z,46.60
2023-05-05T18:26:54.326Z,46.60
2023-05-05T18:29:22.132Z,46.70
2023-05-05T18:34:19.393Z,46.60
2023-05-05T18:36:47.173Z,46.80
2023-05-05T18:39:14.700Z,46.60
2023-05-05T18:41:41.662Z,46.60
2023-05-05T18:46:35.867Z,46.70
2023-05-05T18:53:57.929Z,46.70
2023-05-05T18:56:24.850Z,46.80
2023-05-05T18:58:51.781Z,46.80
2023-05-05T19:01:18.801Z,46.80
2023-05-05T19:06:17.353Z,46.90
2023-05-05T19:08:45.510Z,46.90
2023-05-05T19:11:14.633Z,46.90
2023-05-05T19:13:42.064Z,47.00
2023-05-05T19:16:10.244Z,47.00
2023-05-05T19:21:04.366Z,47.00
2023-05-05T19:23:31.781Z,47.00
2023-05-05T19:25:58.761Z,47.10
2023-05-05T19:35:47.517Z,47.20
2023-05-05T19:40:41.839Z,47.20
2023-05-05T19:45:36.098Z,47.30
2023-05-05T19:48:03.009Z,47.40
2023-05-05T19:50:30.604Z,47.40
2023-05-05T19:57:52.932Z,47.40
2023-05-05T20:05:17.320Z,47.50
2023-05-05T20:07:44.945Z,47.50
2023-05-05T20:10:13.157Z,47.50
2023-05-05T20:12:47.332Z,47.50
2023-05-05T20:15:19.554Z,47.50
2023-05-05T20:20:20.041Z,47.50
2023-05-05T20:22:48.102Z,47.50
2023-05-05T20:25:16.252Z,47.60
2023-05-05T20:30:12.036Z,47.50
2023-05-05T20:32:39.078Z,47.60
2023-05-05T20:37:34.267Z,47.60
2023-05-05T20:40:01.177Z,47.60
2023-05-05T20:42:29.482Z,47.60
2023-05-05T20:44:56.598Z,47.70
2023-05-05T20:47:24.148Z,47.70
2023-05-05T20:54:46.688Z,47.80
2023-05-05T20:57:13.513Z,47.80
2023-05-05T20:59:40.586Z,47.70
2023-05-05T21:11:58.334Z,47.70
2023-05-05T21:14:25.251Z,47.70
2023-05-05T21:16:52.092Z,47.70
2023-05-05T21:19:19.027Z,47.70
2023-05-05T21:21:46.146Z,47.70
2023-05-05T21:26:44.947Z,47.80
2023-05-05T21:29:12.128Z,47.80
2023-05-05T21:34:06.407Z,47.80
2023-05-05T21:36:33.808Z,47.80
2023-05-05T21:39:00.825Z,47.80
2023-05-05T21:41:27.821Z,47.80
2023-05-05T21:46:21.904Z,47.80
2023-05-05T21:48:48.800Z,47.80
2023-05-05T21:51:15.599Z,47.80
2023-05-05T21:53:42.477Z,47.80
2023-05-05T21:56:09.414Z,47.90
2023-05-05T22:01:03.579Z,47.90
2023-05-05T22:03:30.537Z,48.00
2023-05-05T22:05:57.539Z,47.90
2023-05-05T22:08:24.423Z,48.00
2023-05-05T22:13:19.012Z,48.00
2023-05-05T22:15:47.521Z,48.00
2023-05-05T22:18:15.506Z,48.00
2023-05-05T22:20:42.569Z,48.00
2023-05-05T22:23:09.449Z,48.00
2023-05-05T22:25:36.360Z,47.90
2023-05-05T22:30:30.697Z,47.90
2023-05-05T22:32:57.727Z,47.90
2023-05-05T22:35:24.909Z,48.00
2023-05-05T22:45:13.948Z,48.00
2023-05-05T22:47:40.935Z,48.00
2023-05-05T22:50:09.010Z,47.90
2023-05-05T22:52:36.254Z,48.00
2023-05-05T22:55:03.202Z,48.00
2023-05-05T22:59:57.428Z,48.00
2023-05-05T23:02:26.824Z,48.10
2023-05-05T23:04:53.974Z,48.10
2023-05-05T23:07:20.895Z,48.10
2023-05-05T23:12:17.549Z,48.10
2023-05-05T23:17:11.899Z,48.20
2023-05-05T23:19:38.777Z,48.30
2023-05-05T23:22:05.869Z,48.30
2023-05-05T23:24:32.790Z,48.20
2023-05-05T23:29:29.224Z,48.30
2023-05-05T23:31:56.278Z,48.30
2023-05-05T23:34:23.201Z,48.20
2023-05-05T23:36:50.461Z,48.30
2023-05-05T23:39:17.352Z,48.30
2023-05-05T23:41:44.142Z,48.30
2023-05-05T23:44:10.968Z,48.30
2023-05-05T23:51:32.542Z,48.40
2023-05-05T23:53:59.535Z,48.50
2023-05-05T23:56:26.416Z,48.40
2023-05-05T23:58:53.779Z,48.50
